sensor_id;sensor_type;location;lat;lon;timestamp;pressure;altitude;pressure_sealevel;temperature;humidity
16030;BME280;34770;49.272;11.070;2022-10-31T00:00:25;98177.41;;;9.94;100.00
16030;BME280;34770;49.272;11.070;2022-10-31T00:02:50;98143.75;;;9.53;100.00
16030;BME280;34770;49.272;11.070;2022-10-31T00:05:15;98179.66;;;9.79;100.00
16030;BME280;34770;49.272;11.070;2022-10-31T00:07:41;98177.19;;;9.65;100.00
16030;BME280;34770;49.272;11.070;2022-10-31T00:10:07;98178.88;;;9.79;100.00
16030;BME280;34770;49.272;11.070;2022-10-31T00:12:32;98184.56;;;9.82;100.00
16030;BME280;34770;49.272;11.070;2022-10-31T00:14:58;98195.56;;;9.79;100.00
16030;BME280;34770;49.272;11.070;2022-10-31T00:17:23;98186.06;;;9.80;100.00
16030;BME280;34770;49.272;11.070;2022-10-31T00:19:48;98188.22;;;9.74;100.00
16030;BME280;34770;49.272;11.070;2022-10-31T00:22:14;98195.28;;;9.71;100.00
16030;BME280;34770;49.272;11.070;2022-10-31T00:24:39;98180.28;;;9.64;100.00
16030;BME280;34770;49.272;11.070;2022-10-31T00:27:05;98195.63;;;9.70;100.00
16030;BME280;34770;49.272;11.070;2022-10-31T00:29:30;98169.66;;;9.45;100.00
16030;BME280;34770;49.272;11.070;2022-10-31T04:10:41;98113.00;;;7.26;100.00
16030;BME280;34770;49.272;11.070;2022-10-31T05:38:19;98169.38;;;7.30;100.00
16030;BME280;34770;49.272;11.070;2022-10-31T06:32:31;98173.41;;;7.94;100.00
16030;BME280;34770;49.272;11.070;2022-10-31T06:34:56;98143.94;;;7.63;100.00
16030;BME280;34770;49.272;11.070;2022-10-31T06:37:22;98186.94;;;7.87;100.00
16030;BME280;34770;49.272;11.070;2022-10-31T06:39:47;98198.22;;;7.81;100.00
16030;BME280;34770;49.272;11.070;2022-10-31T06:42:15;98196.56;;;7.80;100.00
16030;BME280;34770;49.272;11.070;2022-10-31T06:44:40;98192.81;;;7.94;100.00
16030;BME280;34770;49.272;11.070;2022-10-31T06:47:06;98193.13;;;7.92;100.00
16030;BME280;34770;49.272;11.070;2022-10-31T06:49:31;98196.38;;;8.03;100.00
16030;BME280;34770;49.272;11.070;2022-10-31T06:51:57;98193.59;;;8.12;100.00
16030;BME280;34770;49.272;11.070;2022-10-31T06:54:22;98187.75;;;8.13;100.00
16030;BME280;34770;49.272;11.070;2022-10-31T06:56:48;98182.53;;;8.03;100.00
16030;BME280;34770;49.272;11.070;2022-10-31T06:59:14;98195.59;;;8.03;100.00
16030;BME280;34770;49.272;11.070;2022-10-31T07:01:39;98192.66;;;7.99;100.00
16030;BME280;34770;49.272;11.070;2022-10-31T07:04:04;98187.56;;;8.01;100.00
16030;BME280;34770;49.272;11.070;2022-10-31T07:06:30;98191.03;;;7.98;100.00
16030;BME280;34770;49.272;11.070;2022-10-31T07:08:55;98195.75;;;8.06;100.00
16030;BME280;34770;49.272;11.070;2022-10-31T07:11:20;98198.13;;;8.25;100.00
16030;BME280;34770;49.272;11.070;2022-10-31T07:13:46;98177.94;;;8.16;100.00
16030;BME280;34770;49.272;11.070;2022-10-31T07:16:11;98194.25;;;8.18;100.00
16030;BME280;34770;49.272;11.070;2022-10-31T07:18:38;98185.25;;;8.21;100.00
16030;BME280;34770;49.272;11.070;2022-10-31T07:21:03;98200.72;;;8.48;100.00
16030;BME280;34770;49.272;11.070;2022-10-31T07:23:29;98200.72;;;8.48;100.00
16030;BME280;34770;49.272;11.070;2022-10-31T07:25:58;98190.75;;;8.38;100.00
16030;BME280;34770;49.272;11.070;2022-10-31T07:28:25;98171.53;;;8.33;100.00
16030;BME280;34770;49.272;11.070;2022-10-31T07:30:52;98195.31;;;8.52;100.00
16030;BME280;34770;49.272;11.070;2022-10-31T07:33:17;98194.78;;;8.67;100.00
16030;BME280;34770;49.272;11.070;2022-10-31T07:35:43;98165.06;;;8.68;100.00
16030;BME280;34770;49.272;11.070;2022-10-31T07:38:10;98180.19;;;9.09;100.00
16030;BME280;34770;49.272;11.070;2022-10-31T07:40:36;98180.44;;;9.46;100.00
16030;BME280;34770;49.272;11.070;2022-10-31T07:43:01;98183.50;;;9.53;100.00
16030;BME280;34770;49.272;11.070;2022-10-31T07:45:27;98184.09;;;9.59;100.00
16030;BME280;34770;49.272;11.070;2022-10-31T07:47:52;98172.63;;;9.61;100.00
16030;BME280;34770;49.272;11.070;2022-10-31T07:50:20;98159.63;;;9.73;100.00
16030;BME280;34770;49.272;11.070;2022-10-31T07:52:46;98185.28;;;10.25;100.00
16030;BME280;34770;49.272;11.070;2022-10-31T07:55:12;98153.09;;;10.36;100.00
16030;BME280;34770;49.272;11.070;2022-10-31T07:57:38;98179.59;;;10.80;100.00
16030;BME280;34770;49.272;11.070;2022-10-31T08:00:05;98156.41;;;10.88;100.00
16030;BME280;34770;49.272;11.070;2022-10-31T08:02:30;98162.88;;;11.17;100.00
16030;BME280;34770;49.272;11.070;2022-10-31T08:04:56;98174.03;;;11.70;100.00
16030;BME280;34770;49.272;11.070;2022-10-31T08:07:21;98171.00;;;12.04;100.00
16030;BME280;34770;49.272;11.070;2022-10-31T08:09:47;98143.78;;;12.29;100.00
16030;BME280;34770;49.272;11.070;2022-10-31T08:12:12;98163.19;;;12.54;100.00
16030;BME280;34770;49.272;11.070;2022-10-31T08:14:38;98176.88;;;12.75;100.00
16030;BME280;34770;49.272;11.070;2022-10-31T08:17:03;98144.72;;;12.65;100.00
16030;BME280;34770;49.272;11.070;2022-10-31T08:19:28;98153.22;;;13.04;100.00
16030;BME280;34770;49.272;11.070;2022-10-31T08:21:54;98164.78;;;13.74;100.00
16030;BME280;34770;49.272;11.070;2022-10-31T08:24:23;98138.84;;;14.16;100.00
16030;BME280;34770;49.272;11.070;2022-10-31T08:26:48;98155.34;;;14.88;100.00
16030;BME280;34770;49.272;11.070;2022-10-31T08:29:14;98169.56;;;15.56;98.19
16030;BME280;34770;49.272;11.070;2022-10-31T08:31:40;98153.03;;;15.77;95.02
16030;BME280;34770;49.272;11.070;2022-10-31T08:34:05;98147.25;;;16.31;89.25
16030;BME280;34770;49.272;11.070;2022-10-31T08:36:31;98144.75;;;17.09;88.68
16030;BME280;34770;49.272;11.070;2022-10-31T08:38:56;98123.78;;;17.65;84.69
16030;BME280;34770;49.272;11.070;2022-10-31T08:41:22;98146.13;;;18.14;80.54
16030;BME280;34770;49.272;11.070;2022-10-31T08:43:47;98145.28;;;18.10;78.82
16030;BME280;34770;49.272;11.070;2022-10-31T08:46:13;98140.56;;;18.57;78.56
16030;BME280;34770;49.272;11.070;2022-10-31T08:48:38;98114.41;;;19.15;75.99
16030;BME280;34770;49.272;11.070;2022-10-31T08:51:04;98142.94;;;19.56;72.64
16030;BME280;34770;49.272;11.070;2022-10-31T08:53:29;98127.53;;;19.90;69.82
16030;BME280;34770;49.272;11.070;2022-10-31T08:55:55;98134.81;;;19.87;70.17
16030;BME280;34770;49.272;11.070;2022-10-31T08:58:21;98137.75;;;19.37;72.02
16030;BME280;34770;49.272;11.070;2022-10-31T09:00:49;98132.09;;;20.44;68.27
16030;BME280;34770;49.272;11.070;2022-10-31T09:03:23;98135.56;;;19.99;67.82
16030;BME280;34770;49.272;11.070;2022-10-31T09:05:49;98129.66;;;21.02;63.67
16030;BME280;34770;49.272;11.070;2022-10-31T09:08:15;98103.91;;;21.31;64.69
16030;BME280;34770;49.272;11.070;2022-10-31T09:10:41;98136.78;;;20.72;63.96
16030;BME280;34770;49.272;11.070;2022-10-31T09:13:11;98129.75;;;21.75;64.69
16030;BME280;34770;49.272;11.070;2022-10-31T09:15:39;98128.66;;;20.07;67.18
16030;BME280;34770;49.272;11.070;2022-10-31T09:18:06;98105.38;;;21.04;65.87
16030;BME280;34770;49.272;11.070;2022-10-31T09:20:33;98123.81;;;21.96;62.34
16030;BME280;34770;49.272;11.070;2022-10-31T09:23:01;98122.75;;;22.18;62.62
16030;BME280;34770;49.272;11.070;2022-10-31T09:25:27;98123.94;;;22.75;60.18
16030;BME280;34770;49.272;11.070;2022-10-31T09:27:56;98118.53;;;23.08;58.57
16030;BME280;34770;49.272;11.070;2022-10-31T09:30:23;98128.38;;;23.27;56.86
16030;BME280;34770;49.272;11.070;2022-10-31T09:32:54;98122.44;;;22.67;60.72
16030;BME280;34770;49.272;11.070;2022-10-31T09:35:20;98117.03;;;22.76;59.72
16030;BME280;34770;49.272;11.070;2022-10-31T09:37:45;98128.63;;;23.36;58.03
16030;BME280;34770;49.272;11.070;2022-10-31T09:40:11;98123.84;;;23.73;57.82
16030;BME280;34770;49.272;11.070;2022-10-31T09:51:38;98121.28;;;22.64;58.99
16030;BME280;34770;49.272;11.070;2022-10-31T09:54:12;98118.69;;;23.24;59.54
16030;BME280;34770;49.272;11.070;2022-10-31T09:56:39;98112.19;;;23.00;59.86
16030;BME280;34770;49.272;11.070;2022-10-31T09:59:10;98121.50;;;21.88;61.34
16030;BME280;34770;49.272;11.070;2022-10-31T10:01:42;98111.34;;;21.56;64.39
16030;BME280;34770;49.272;11.070;2022-10-31T10:04:14;98098.78;;;21.57;66.97
16030;BME280;34770;49.272;11.070;2022-10-31T10:06:46;98097.63;;;21.89;65.90
16030;BME280;34770;49.272;11.070;2022-10-31T10:09:12;98084.09;;;22.00;64.56
16030;BME280;34770;49.272;11.070;2022-10-31T10:20:00;98091.00;;;21.68;68.82
16030;BME280;34770;49.272;11.070;2022-10-31T10:22:50;98078.44;;;21.69;69.39
16030;BME280;34770;49.272;11.070;2022-10-31T10:25:28;98077.66;;;21.65;70.33
16030;BME280;34770;49.272;11.070;2022-10-31T10:28:03;98090.16;;;20.87;72.99
16030;BME280;34770;49.272;11.070;2022-10-31T10:30:42;98088.13;;;20.92;71.47
16030;BME280;34770;49.272;11.070;2022-10-31T10:33:11;98081.09;;;20.58;72.25
16030;BME280;34770;49.272;11.070;2022-10-31T10:35:53;98083.44;;;20.14;75.86
16030;BME280;34770;49.272;11.070;2022-10-31T10:38:34;98071.75;;;20.05;76.40
16030;BME280;34770;49.272;11.070;2022-10-31T10:41:06;98064.84;;;20.73;74.80
16030;BME280;34770;49.272;11.070;2022-10-31T10:43:36;98055.56;;;20.72;73.63
16030;BME280;34770;49.272;11.070;2022-10-31T10:49:12;98076.84;;;20.88;74.30
16030;BME280;34770;49.272;11.070;2022-10-31T10:51:46;98053.78;;;20.40;74.82
16030;BME280;34770;49.272;11.070;2022-10-31T11:00:18;98052.44;;;21.05;75.63
16030;BME280;34770;49.272;11.070;2022-10-31T11:02:44;98052.72;;;20.69;75.40
16030;BME280;34770;49.272;11.070;2022-10-31T11:05:18;98042.59;;;20.75;76.85
16030;BME280;34770;49.272;11.070;2022-10-31T11:07:45;98050.50;;;20.95;75.69
16030;BME280;34770;49.272;11.070;2022-10-31T11:10:15;98039.97;;;20.99;75.20
16030;BME280;34770;49.272;11.070;2022-10-31T11:12:43;98034.53;;;21.15;75.94
16030;BME280;34770;49.272;11.070;2022-10-31T11:15:21;98010.63;;;21.20;75.50
16030;BME280;34770;49.272;11.070;2022-10-31T11:17:50;98032.03;;;21.21;74.62
16030;BME280;34770;49.272;11.070;2022-10-31T11:22:45;98002.22;;;20.75;77.58
16030;BME280;34770;49.272;11.070;2022-10-31T11:25:23;98016.00;;;21.45;74.77
16030;BME280;34770;49.272;11.070;2022-10-31T11:28:08;97971.72;;;21.62;73.95
16030;BME280;34770;49.272;11.070;2022-10-31T11:30:45;97997.34;;;21.82;70.43
16030;BME280;34770;49.272;11.070;2022-10-31T11:33:17;98000.59;;;22.08;70.79
16030;BME280;34770;49.272;11.070;2022-10-31T11:35:44;98001.81;;;22.07;71.41
16030;BME280;34770;49.272;11.070;2022-10-31T11:38:15;97994.59;;;22.03;72.41
16030;BME280;34770;49.272;11.070;2022-10-31T11:40:55;97967.59;;;21.67;72.63
16030;BME280;34770;49.272;11.070;2022-10-31T11:43:21;98002.09;;;22.17;71.96
16030;BME280;34770;49.272;11.070;2022-10-31T11:45:47;97984.53;;;22.25;73.13
16030;BME280;34770;49.272;11.070;2022-10-31T11:48:20;97989.22;;;22.39;71.46
16030;BME280;34770;49.272;11.070;2022-10-31T11:50:56;97981.00;;;22.45;71.60
16030;BME280;34770;49.272;11.070;2022-10-31T11:53:33;97988.19;;;21.98;70.88
16030;BME280;34770;49.272;11.070;2022-10-31T11:56:03;97987.75;;;22.27;70.52
16030;BME280;34770;49.272;11.070;2022-10-31T11:58:29;97986.16;;;22.26;71.76
16030;BME280;34770;49.272;11.070;2022-10-31T12:00:56;97975.66;;;22.23;71.99
16030;BME280;34770;49.272;11.070;2022-10-31T12:05:51;97973.34;;;22.66;69.69
16030;BME280;34770;49.272;11.070;2022-10-31T12:08:18;97974.03;;;22.73;69.36
16030;BME280;34770;49.272;11.070;2022-10-31T12:13:57;97933.19;;;21.96;67.51
16030;BME280;34770;49.272;11.070;2022-10-31T12:53:19;97924.59;;;23.15;61.07
16030;BME280;34770;49.272;11.070;2022-10-31T12:57:48;97922.34;;;22.62;63.48
16030;BME280;34770;49.272;11.070;2022-10-31T13:00:17;97904.97;;;22.36;63.66
16030;BME280;34770;49.272;11.070;2022-10-31T13:03:08;97908.56;;;22.17;60.91
16030;BME280;34770;49.272;11.070;2022-10-31T13:05:43;97918.59;;;21.97;61.54
16030;BME280;34770;49.272;11.070;2022-10-31T13:08:16;97887.44;;;21.70;61.85
16030;BME280;34770;49.272;11.070;2022-10-31T13:16:16;97902.78;;;21.42;63.80
16030;BME280;34770;49.272;11.070;2022-10-31T13:19:05;97885.22;;;21.27;64.23
16030;BME280;34770;49.272;11.070;2022-10-31T13:24:29;97886.84;;;21.28;65.05
16030;BME280;34770;49.272;11.070;2022-10-31T13:26:58;97879.13;;;21.28;64.04
16030;BME280;34770;49.272;11.070;2022-10-31T13:29:33;97888.31;;;21.36;64.04
16030;BME280;34770;49.272;11.070;2022-10-31T13:32:04;97881.84;;;21.66;65.19
16030;BME280;34770;49.272;11.070;2022-10-31T13:34:35;97876.41;;;22.51;62.59
16030;BME280;34770;49.272;11.070;2022-10-31T13:39:49;97850.69;;;24.83;54.77
16030;BME280;34770;49.272;11.070;2022-10-31T13:42:51;97849.75;;;26.06;51.58
16030;BME280;34770;49.272;11.070;2022-10-31T13:45:21;97855.25;;;26.71;49.56
16030;BME280;34770;49.272;11.070;2022-10-31T13:50:29;97850.09;;;26.21;50.51
16030;BME280;34770;49.272;11.070;2022-10-31T13:53:19;97850.72;;;25.64;50.75
16030;BME280;34770;49.272;11.070;2022-10-31T13:55:47;97830.09;;;24.63;51.96
16030;BME280;34770;49.272;11.070;2022-10-31T13:58:31;97842.75;;;24.16;51.98
16030;BME280;34770;49.272;11.070;2022-10-31T14:01:16;97849.47;;;23.72;52.88
16030;BME280;34770;49.272;11.070;2022-10-31T14:03:46;97850.13;;;23.27;54.43
16030;BME280;34770;49.272;11.070;2022-10-31T14:06:12;97856.78;;;22.60;56.65
16030;BME280;34770;49.272;11.070;2022-10-31T14:08:43;97827.28;;;21.62;59.65
16030;BME280;34770;49.272;11.070;2022-10-31T14:11:24;97856.34;;;21.39;60.34
16030;BME280;34770;49.272;11.070;2022-10-31T14:13:52;97839.00;;;21.06;61.88
16030;BME280;34770;49.272;11.070;2022-10-31T14:16:28;97842.13;;;20.84;62.91
16030;BME280;34770;49.272;11.070;2022-10-31T14:19:05;97834.34;;;20.58;64.25
16030;BME280;34770;49.272;11.070;2022-10-31T14:21:41;97832.44;;;20.47;64.54
16030;BME280;34770;49.272;11.070;2022-10-31T14:29:31;97801.97;;;19.86;69.57
16030;BME280;34770;49.272;11.070;2022-10-31T14:32:18;97825.78;;;19.88;71.28
16030;BME280;34770;49.272;11.070;2022-10-31T14:34:54;97826.25;;;19.72;73.29
16030;BME280;34770;49.272;11.070;2022-10-31T16:14:02;97766.09;;;15.65;100.00
16030;BME280;34770;49.272;11.070;2022-10-31T16:16:31;97658.53;;;14.83;100.00
16030;BME280;34770;49.272;11.070;2022-10-31T16:18:59;97697.06;;;14.94;100.00
16030;BME280;34770;49.272;11.070;2022-10-31T16:21:28;97783.91;;;15.35;100.00
16030;BME280;34770;49.272;11.070;2022-10-31T16:23:58;97741.38;;;14.84;100.00
16030;BME280;34770;49.272;11.070;2022-10-31T16:26:26;97798.88;;;15.09;100.00
16030;BME280;34770;49.272;11.070;2022-10-31T16:28:54;97738.28;;;14.59;100.00
16030;BME280;34770;49.272;11.070;2022-10-31T16:31:29;97739.13;;;14.60;100.00
16030;BME280;34770;49.272;11.070;2022-10-31T16:34:03;97792.94;;;14.76;100.00
16030;BME280;34770;49.272;11.070;2022-10-31T16:36:33;97801.75;;;14.78;100.00
16030;BME280;34770;49.272;11.070;2022-10-31T17:04:49;97731.69;;;13.26;100.00
16030;BME280;34770;49.272;11.070;2022-10-31T17:07:20;97748.97;;;13.32;100.00
16030;BME280;34770;49.272;11.070;2022-10-31T17:09:48;97734.53;;;13.30;100.00
16030;BME280;34770;49.272;11.070;2022-10-31T17:12:26;97714.63;;;13.08;100.00
16030;BME280;34770;49.272;11.070;2022-10-31T17:14:54;97773.88;;;13.40;100.00
16030;BME280;34770;49.272;11.070;2022-10-31T17:17:21;97770.75;;;13.22;100.00
16030;BME280;34770;49.272;11.070;2022-10-31T17:19:49;97736.13;;;13.04;100.00
16030;BME280;34770;49.272;11.070;2022-10-31T17:22:17;97808.97;;;13.38;100.00
16030;BME280;34770;49.272;11.070;2022-10-31T17:24:45;97721.59;;;12.71;100.00
16030;BME280;34770;49.272;11.070;2022-10-31T17:27:13;97716.44;;;12.50;100.00
16030;BME280;34770;49.272;11.070;2022-10-31T17:29:42;97801.75;;;13.14;100.00
16030;BME280;34770;49.272;11.070;2022-10-31T17:32:09;97774.19;;;12.89;100.00
